Time;durP1;ratioP1;P1;durP2;ratioP2;P2;SDS_P1;SDS_P2;PMS_P1;PMS_P2;Temp;Humidity;BMP_temperature;BMP_pressure;BME280_temperature;BME280_humidity;BME280_pressure;Samples;Min_cycle;Max_cycle;Signal;HPM_P1;HPM_P2
2023/10/11 00:00:40;;;;;;;7.28;3.30;;;;;;;22.65;100.00;101078.16;4929280;29;20127;-48
2023/10/11 00:03:16;;;;;;;8.18;3.40;;;;;;;22.61;100.00;101074.72;4928786;29;20122;-47
2023/10/11 00:05:45;;;;;;;7.20;3.10;;;;;;;22.60;100.00;101078.03;4925565;29;20142;-50
2023/10/11 00:08:16;;;;;;;7.63;3.00;;;;;;;22.67;100.00;101072.75;4928129;29;20541;-49
2023/10/11 00:10:53;;;;;;;13.20;3.00;;;;;;;22.73;100.00;101082.13;4924806;29;20052;-49
2023/10/11 00:13:32;;;;;;;11.23;4.05;;;;;;;22.66;100.00;101085.38;4927329;29;20140;-48
2023/10/11 00:16:07;;;;;;;10.23;3.25;;;;;;;22.65;100.00;101083.81;4927722;29;20052;-49
2023/10/11 00:18:35;;;;;;;6.60;3.20;;;;;;;22.64;100.00;101082.22;4929767;29;20139;-48
2023/10/11 00:21:15;;;;;;;8.55;3.00;;;;;;;22.63;100.00;101077.84;4926320;29;20063;-48
2023/10/11 00:23:45;;;;;;;5.85;2.80;;;;;;;22.61;100.00;101063.38;4930741;29;20067;-48
2023/10/11 00:26:16;;;;;;;8.85;4.13;;;;;;;22.63;100.00;101074.22;4929504;29;20531;-50
2023/10/11 00:28:43;;;;;;;5.85;2.95;;;;;;;22.61;100.00;101068.28;4914572;29;20055;-48
2023/10/11 00:31:18;;;;;;;7.03;2.80;;;;;;;22.62;100.00;101072.66;4924925;29;20060;-49
2023/10/11 00:33:49;;;;;;;6.05;2.80;;;;;;;22.57;100.00;101062.81;4930187;29;20107;-46
2023/10/11 00:36:21;;;;;;;8.05;2.85;;;;;;;22.60;100.00;101063.88;4928624;29;20096;-47
2023/10/11 00:38:48;;;;;;;8.73;3.00;;;;;;;22.60;100.00;101061.03;4927879;29;20430;-47
2023/10/11 00:41:19;;;;;;;6.30;2.80;;;;;;;22.59;100.00;101063.09;4930202;29;20107;-48
2023/10/11 00:43:50;;;;;;;8.13;3.00;;;;;;;22.62;100.00;101055.66;4933476;29;20039;-48
2023/10/11 00:46:25;;;;;;;6.82;3.10;;;;;;;22.62;100.00;101056.47;4925681;29;20051;-50
2023/10/11 00:48:51;;;;;;;6.82;3.03;;;;;;;22.58;100.00;101050.19;4931979;29;20103;-47
2023/10/11 00:51:26;;;;;;;6.72;2.83;;;;;;;22.61;100.00;101056.94;4931734;29;20043;-47
2023/10/11 00:53:52;;;;;;;9.10;2.87;;;;;;;22.61;100.00;101049.22;4931936;29;20107;-47
2023/10/11 00:56:20;;;;;;;8.15;2.72;;;;;;;22.61;100.00;101052.03;4931066;29;20139;-49
2023/10/11 00:58:50;;;;;;;7.60;3.03;;;;;;;22.61;100.00;101052.03;4930237;29;20107;-50
2023/10/11 01:01:17;;;;;;;4.95;2.47;;;;;;;22.64;100.00;101045.41;4932305;29;20056;-47
2023/10/11 01:03:45;;;;;;;8.13;2.85;;;;;;;22.61;100.00;101045.63;4933182;29;20143;-47
2023/10/11 01:06:12;;;;;;;7.43;2.88;;;;;;;22.63;100.00;101037.38;4930166;29;20123;-47
2023/10/11 01:08:39;;;;;;;8.60;3.08;;;;;;;22.65;100.00;101046.19;4930185;29;20052;-48
2023/10/11 01:11:13;;;;;;;6.38;2.78;;;;;;;22.57;100.00;101036.53;4932006;29;20268;-47
2023/10/11 01:13:42;;;;;;;5.78;2.47;;;;;;;22.63;100.00;101037.38;4927384;29;20044;-47
2023/10/11 01:16:10;;;;;;;8.70;3.05;;;;;;;22.65;100.00;101040.53;4932347;29;20054;-45
2023/10/11 01:18:43;;;;;;;6.82;2.75;;;;;;;22.59;100.00;101031.94;4931978;29;20147;-47
2023/10/11 01:21:12;;;;;;;6.65;2.33;;;;;;;22.61;100.00;101035.03;4930601;29;20066;-47
2023/10/11 01:23:39;;;;;;;8.27;3.63;;;;;;;22.60;100.00;101038.38;4932096;29;20052;-49
2023/10/11 01:26:07;;;;;;;6.18;2.40;;;;;;;22.59;100.00;101036.81;4930727;29;20051;-47
2023/10/11 01:28:34;;;;;;;6.97;2.88;;;;;;;22.61;100.00;101022.94;4931999;29;20085;-47
2023/10/11 01:31:08;;;;;;;7.75;3.33;;;;;;;22.55;100.00;101031.38;4932334;29;20048;-46
2023/10/11 01:33:43;;;;;;;8.13;2.80;;;;;;;22.60;100.00;101024.19;4933120;29;20059;-46
2023/10/11 01:36:23;;;;;;;6.55;2.90;;;;;;;22.61;100.00;101022.94;4931197;29;20051;-48
2023/10/11 01:38:49;;;;;;;6.43;3.25;;;;;;;22.55;100.00;101020.03;4929288;29;20055;-48
2023/10/11 01:41:26;;;;;;;4.57;2.30;;;;;;;22.58;100.00;101026.75;4932375;29;20099;-47
2023/10/11 01:43:54;;;;;;;13.38;2.63;;;;;;;22.72;100.00;101021.06;4929604;29;20056;-47
2023/10/11 01:46:35;;;;;;;10.70;2.80;;;;;;;22.66;100.00;101025.06;4931977;29;20060;-46
2023/10/11 01:49:05;;;;;;;5.65;2.78;;;;;;;22.61;100.00;101017.28;4932552;29;20138;-47
2023/10/11 01:51:39;;;;;;;7.07;2.97;;;;;;;22.62;100.00;101025.28;4931512;29;20596;-46
2023/10/11 01:54:09;;;;;;;8.23;2.92;;;;;;;22.63;100.00;101014.72;4930466;29;20495;-47
2023/10/11 01:56:38;;;;;;;7.10;2.50;;;;;;;22.63;100.00;101014.72;4932177;29;20052;-46
2023/10/11 01:59:05;;;;;;;5.45;2.40;;;;;;;22.65;100.00;101015.00;4932286;29;20138;-45
2023/10/11 02:01:38;;;;;;;5.43;2.38;;;;;;;22.64;100.00;101014.22;4932921;29;20086;-49
2023/10/11 02:04:18;;;;;;;8.93;3.08;;;;;;;22.63;100.00;101009.06;4933017;29;20851;-46
2023/10/11 02:06:47;;;;;;;6.20;2.80;;;;;;;22.60;100.00;101004.38;4932265;29;20590;-49
2023/10/11 02:09:20;;;;;;;8.00;2.88;;;;;;;22.60;100.00;101004.38;4930584;29;20059;-49
2023/10/11 02:11:52;;;;;;;6.28;2.78;;;;;;;22.63;100.00;101006.22;4931696;29;20553;-48
2023/10/11 02:14:19;;;;;;;6.30;2.60;;;;;;;22.63;100.00;101001.34;4932910;29;20043;-48
2023/10/11 02:16:46;;;;;;;8.25;2.55;;;;;;;22.61;100.00;100995.38;4932756;29;20507;-47
2023/10/11 02:19:15;;;;;;;5.60;2.47;;;;;;;22.59;100.00;101003.59;4932248;29;20052;-48
2023/10/11 02:21:45;;;;;;;8.00;2.80;;;;;;;22.61;100.00;101001.03;4932083;29;20052;-49
2023/10/11 02:24:14;;;;;;;5.03;2.70;;;;;;;22.57;100.00;100999.69;4932422;29;20052;-48
2023/10/11 02:26:49;;;;;;;5.57;2.60;;;;;;;22.56;100.00;100998.91;4933132;29;20083;-48
2023/10/11 02:29:22;;;;;;;4.63;2.38;;;;;;;22.56;100.00;100995.31;4932133;29;20435;-49
2023/10/11 02:31:50;;;;;;;5.00;2.20;;;;;;;22.57;100.00;101000.47;4930457;29;20055;-48
2023/10/11 02:34:17;;;;;;;5.43;2.40;;;;;;;22.59;100.00;100997.16;4932627;29;20075;-48
2023/10/11 02:36:45;;;;;;;9.05;2.67;;;;;;;22.57;100.00;101000.47;4923766;29;20111;-47
2023/10/11 02:39:22;;;;;;;5.07;2.25;;;;;;;22.54;100.00;100990.13;4929341;29;20115;-48
2023/10/11 02:41:50;;;;;;;7.55;2.95;;;;;;;22.54;100.00;100986.53;4926142;29;20071;-49
2023/10/11 02:44:22;;;;;;;6.72;2.50;;;;;;;22.54;100.00;100997.88;4927418;29;20135;-48
2023/10/11 02:46:51;;;;;;;5.22;2.53;;;;;;;22.53;100.00;100993.44;4931080;29;20059;-48
2023/10/11 02:49:20;;;;;;;10.35;3.20;;;;;;;22.55;100.00;100988.09;4929211;29;20055;-49
2023/10/11 02:51:56;;;;;;;5.90;2.40;;;;;;;22.56;100.00;100992.47;4931162;29;20061;-49
2023/10/11 02:54:39;;;;;;;7.95;2.60;;;;;;;22.51;100.00;100999.59;4931909;29;20060;-49
2023/10/11 02:57:18;;;;;;;;;;;;;;;22.51;100.00;100991.09;4931757;29;20545;-46
2023/10/11 02:59:50;;;;;;;7.25;2.90;;;;;;;22.52;100.00;100991.91;4930540;29;19962;-48
2023/10/11 03:02:16;;;;;;;6.00;2.20;;;;;;;22.51;100.00;100984.69;4929585;29;20054;-47
2023/10/11 03:04:43;;;;;;;4.93;2.42;;;;;;;22.52;100.00;100992.69;4930119;29;20055;-50
2023/10/11 03:07:23;;;;;;;6.90;2.83;;;;;;;22.48;100.00;100983.59;4931000;29;20063;-46
2023/10/11 03:09:51;;;;;;;5.25;2.35;;;;;;;22.52;100.00;100980.56;4931813;29;20056;-46
2023/10/11 03:12:30;;;;;;;8.10;2.53;;;;;;;22.50;100.00;100971.78;4932012;29;20134;-50
2023/10/11 03:15:05;;;;;;;6.20;2.58;;;;;;;22.50;100.00;100972.56;4930753;29;20056;-47
2023/10/11 03:17:32;;;;;;;6.13;2.40;;;;;;;22.51;100.00;100979.00;4931806;29;20055;-48
2023/10/11 03:19:58;;;;;;;3.83;2.10;;;;;;;22.52;100.00;100977.72;4931324;29;20115;-49
2023/10/11 03:22:28;;;;;;;6.13;2.50;;;;;;;22.52;100.00;100977.72;4931899;29;20056;-47
2023/10/11 03:25:00;;;;;;;6.05;2.45;;;;;;;22.49;100.00;100987.22;4929954;29;20059;-47
2023/10/11 03:27:27;;;;;;;5.72;2.50;;;;;;;22.53;100.00;100982.91;4931346;29;20052;-47
2023/10/11 03:29:55;;;;;;;7.57;2.50;;;;;;;22.51;100.00;100979.00;4929746;29;20138;-48
2023/10/11 03:32:25;;;;;;;5.80;2.55;;;;;;;22.50;100.00;100978.22;4931574;29;20059;-48
2023/10/11 03:34:53;;;;;;;7.43;2.75;;;;;;;22.48;100.00;100982.84;4927712;29;20059;-47
2023/10/11 03:37:19;;;;;;;4.95;2.03;;;;;;;22.51;100.00;100973.34;4931524;29;20051;-46
2023/10/11 03:39:56;;;;;;;6.63;2.45;;;;;;;22.50;100.00;100974.59;4931631;29;20085;-48
2023/10/11 03:45:08;;;;;;;;;;;;;;;22.49;100.00;100973.84;4930191;29;20136;-48
2023/10/11 03:47:37;;;;;;;5.55;2.15;;;;;;;22.47;100.00;100967.13;4931556;29;19931;-47
2023/10/11 03:50:06;;;;;;;5.72;2.47;;;;;;;22.46;100.00;100972.00;4924342;29;20063;-47
2023/10/11 03:52:33;;;;;;;4.72;2.47;;;;;;;22.46;100.00;100966.31;4930428;29;20582;-50
2023/10/11 03:55:09;;;;;;;5.93;2.22;;;;;;;22.47;100.00;100965.03;4926591;29;20507;-47
2023/10/11 03:57:41;;;;;;;6.85;3.08;;;;;;;22.47;100.00;100975.63;4931500;29;20059;-47
2023/10/11 04:02:57;;;;;;;5.65;2.58;;;;;;;22.45;100.00;100961.94;4925943;29;20099;-47
2023/10/11 04:05:35;;;;;;;7.05;2.55;;;;;;;22.45;100.00;100970.44;4928975;29;20162;-49
2023/10/11 04:08:05;;;;;;;5.72;2.33;;;;;;;22.45;100.00;100970.44;4931222;29;20084;-47
2023/10/11 04:10:39;;;;;;;5.28;2.42;;;;;;;22.44;100.00;100971.69;4931116;29;20055;-47
2023/10/11 04:13:09;;;;;;;4.75;2.22;;;;;;;22.45;100.00;100969.66;4931340;29;20051;-46
2023/10/11 04:15:39;;;;;;;9.15;2.42;;;;;;;22.43;100.00;100966.53;4928702;29;20146;-48
2023/10/11 04:18:15;;;;;;;4.13;2.00;;;;;;;22.46;100.00;100963.50;4932230;29;20103;-47
2023/10/11 04:20:51;;;;;;;3.75;2.13;;;;;;;22.43;100.00;100970.16;4928843;29;20127;-48
2023/10/11 04:23:24;;;;;;;6.15;2.40;;;;;;;22.43;100.00;100975.81;4931146;29;20054;-50
2023/10/11 04:25:51;;;;;;;4.43;2.25;;;;;;;22.42;100.00;100974.25;4934006;29;20083;-46
2023/10/11 04:28:17;;;;;;;3.83;2.05;;;;;;;22.43;100.00;100966.53;4934750;29;20059;-46
2023/10/11 04:30:51;;;;;;;6.75;2.65;;;;;;;22.45;100.00;100959.13;4933328;29;20407;-49
2023/10/11 04:33:20;;;;;;;7.13;2.60;;;;;;;22.43;100.00;100953.16;4932632;29;20499;-48
2023/10/11 04:35:57;;;;;;;4.55;2.17;;;;;;;22.45;100.00;100961.94;4933980;29;20060;-49
2023/10/11 04:38:24;;;;;;;5.65;2.38;;;;;;;22.43;100.00;100960.84;4931509;29;20075;-48
2023/10/11 04:40:53;;;;;;;4.80;2.20;;;;;;;22.46;100.00;100966.31;4934266;29;20130;-48
2023/10/11 04:43:26;;;;;;;6.15;2.53;;;;;;;22.45;100.00;100961.16;4934029;29;20129;-49
2023/10/11 04:45:59;;;;;;;6.22;2.33;;;;;;;22.44;100.00;100962.44;4934586;29;20498;-49
2023/10/11 04:48:36;;;;;;;4.45;2.17;;;;;;;22.44;100.00;100959.59;4932667;29;20119;-50
2023/10/11 04:51:06;;;;;;;6.53;2.38;;;;;;;22.43;100.00;100963.69;4931577;29;20090;-48
2023/10/11 04:53:37;;;;;;;6.60;2.42;;;;;;;22.45;100.00;100963.97;4930496;29;20796;-48
2023/10/11 04:59:05;;;;;;;4.68;2.20;;;;;;;22.41;100.00;100969.09;4907765;29;20055;-48
2023/10/11 05:04:16;;;;;;;4.30;1.80;;;;;;;22.42;100.00;100956.47;4934262;29;20046;-48
2023/10/11 05:06:45;;;;;;;6.75;2.30;;;;;;;22.40;100.00;100961.84;4934344;29;20062;-49
2023/10/11 05:09:14;;;;;;;5.28;2.35;;;;;;;22.43;100.00;100966.53;4932998;29;20075;-48
2023/10/11 05:11:46;;;;;;;8.00;2.22;;;;;;;22.44;100.00;100976.59;4933717;29;20052;-47
2023/10/11 05:17:16;;;;;;;7.35;2.17;;;;;;;22.54;100.00;100956.13;4931972;29;20075;-46
2023/10/11 05:22:49;;;;;;;7.68;2.47;;;;;;;22.48;100.00;100957.34;4933817;29;20115;-48
2023/10/11 05:28:07;;;;;;;8.98;2.53;;;;;;;22.50;100.00;100954.78;4928513;29;20083;-45
2023/10/11 05:30:34;;;;;;;5.55;2.08;;;;;;;22.50;100.00;100938.56;4930085;29;20155;-48
2023/10/11 05:52:09;;;;;;;6.60;1.98;;;;;;;22.47;100.00;100939.53;4931569;29;20059;-49
2023/10/11 05:54:35;;;;;;;5.20;2.25;;;;;;;22.47;100.00;100950.88;4929257;29;20048;-41
2023/10/11 05:57:03;;;;;;;4.95;1.95;;;;;;;22.49;100.00;100958.88;4931903;29;20578;-43
2023/10/11 05:59:37;;;;;;;6.20;2.10;;;;;;;22.48;100.00;100949.59;4932352;29;20062;-49
2023/10/11 06:02:13;;;;;;;4.38;2.28;;;;;;;22.46;100.00;100937.22;4932261;29;20693;-44
2023/10/11 06:04:40;;;;;;;6.30;2.53;;;;;;;22.47;100.00;100944.44;4930970;29;20063;-42
2023/10/11 06:07:09;;;;;;;5.43;1.98;;;;;;;22.47;100.00;100933.88;4932133;29;20055;-42
2023/10/11 06:09:43;;;;;;;5.70;1.95;;;;;;;22.49;100.00;100930.56;4915022;29;20048;-42
2023/10/11 06:12:22;;;;;;;7.50;2.33;;;;;;;22.48;100.00;100926.19;4932784;29;20070;-42
2023/10/11 06:14:53;;;;;;;6.78;2.17;;;;;;;22.50;100.00;100930.06;4931860;29;20079;-46
2023/10/11 06:17:32;;;;;;;6.60;2.28;;;;;;;22.55;100.00;100929.38;4932933;29;20130;-41
2023/10/11 06:20:23;;;;;;;7.82;2.20;;;;;;;22.51;100.00;100945.03;4930202;29;20060;-43
2023/10/11 06:22:46;;;;;;;8.75;2.47;;;;;;;22.49;100.00;100937.00;4932161;29;20138;-41
2023/10/11 06:25:13;;;;;;;9.80;2.58;;;;;;;22.52;100.00;100955.84;4932507;29;20048;-47
2023/10/11 06:30:28;;;;;;;5.78;2.47;;;;;;;22.55;100.00;100954.09;4932408;29;20107;-42
2023/10/11 06:32:56;;;;;;;3.65;1.90;;;;;;;22.56;100.00;100961.31;4930891;29;20063;-42
2023/10/11 06:35:23;;;;;;;8.73;2.05;;;;;;;22.57;100.00;100948.69;4931790;29;20047;-42
2023/10/11 06:37:55;;;;;;;9.20;2.05;;;;;;;22.55;100.00;100956.91;4926865;29;20059;-43
2023/10/11 06:40:47;;;;;;;9.10;2.20;;;;;;;22.59;100.00;100978.09;4925308;29;20642;-44
2023/10/11 06:43:14;;;;;;;9.48;2.92;;;;;;;22.44;100.00;100973.75;4931840;29;20118;-46
2023/10/11 06:45:42;;;;;;;14.63;4.80;;;;;;;22.23;100.00;100967.25;4930992;29;20084;-42
2023/10/11 06:48:10;;;;;;;11.77;4.18;;;;;;;22.17;100.00;100965.59;4932213;29;20055;-43
2023/10/11 06:50:37;;;;;;;10.63;4.40;;;;;;;22.17;100.00;100959.94;4931973;29;20051;-42
2023/10/11 06:53:07;;;;;;;16.27;4.75;;;;;;;22.14;100.00;100964.53;4930527;29;20119;-46
2023/10/11 06:55:35;;;;;;;11.32;4.25;;;;;;;22.14;100.00;100962.47;4930575;29;20056;-42
2023/10/11 06:58:09;;;;;;;13.35;4.18;;;;;;;22.17;100.00;100968.44;4932234;29;20126;-43
2023/10/11 07:00:45;;;;;;;15.00;4.63;;;;;;;22.17;100.00;100974.88;4930974;29;20471;-46
2023/10/11 07:03:26;;;;;;;13.63;4.93;;;;;;;22.18;100.00;100960.22;4930761;29;20044;-41
2023/10/11 07:05:56;;;;;;;14.57;4.60;;;;;;;22.16;100.00;100967.66;4930617;29;20600;-41
2023/10/11 07:08:34;;;;;;;15.93;4.85;;;;;;;22.17;100.00;100948.63;4929850;29;20075;-42
2023/10/11 07:13:43;;;;;;;13.30;5.13;;;;;;;22.25;100.00;100959.03;4929498;29;20771;-48
2023/10/11 07:16:10;;;;;;;14.07;4.25;;;;;;;22.29;100.00;100956.00;4931464;29;20064;-43
2023/10/11 07:18:43;;;;;;;12.88;4.13;;;;;;;22.30;100.00;100966.84;4931241;29;20594;-42
2023/10/11 07:21:10;;;;;;;14.93;4.82;;;;;;;22.32;100.00;100960.69;4916058;29;20055;-45
2023/10/11 07:23:51;;;;;;;15.13;5.07;;;;;;;22.35;100.00;100965.38;4931006;29;20056;-40
2023/10/11 07:26:23;;;;;;;13.63;4.40;;;;;;;22.41;100.00;100957.75;4931476;29;20541;-46
2023/10/11 07:28:51;;;;;;;11.70;4.63;;;;;;;22.39;100.00;100952.59;4931244;29;20430;-41
2023/10/11 07:31:19;;;;;;;26.75;5.07;;;;;;;22.41;100.00;100952.09;4928660;29;20483;-42
2023/10/11 07:33:49;;;;;;;12.73;4.60;;;;;;;22.42;100.00;100953.63;4930823;29;20087;-42
2023/10/11 07:36:18;;;;;;;17.67;5.95;;;;;;;22.43;100.00;100949.53;4931234;29;20055;-42
2023/10/11 07:38:47;;;;;;;19.38;8.95;;;;;;;22.40;100.00;100950.50;4928710;29;20653;-41
2023/10/11 07:41:19;;;;;;;21.58;10.40;;;;;;;22.41;100.00;100955.69;4930498;29;20089;-39
2023/10/11 07:43:45;;;;;;;15.93;7.60;;;;;;;22.39;100.00;100961.06;4931626;29;20058;-41
2023/10/11 07:46:12;;;;;;;16.92;5.05;;;;;;;22.25;100.00;100961.09;4931284;29;20549;-45
2023/10/11 07:48:39;;;;;;;16.70;4.63;;;;;;;22.23;100.00;100955.13;4931610;29;20055;-44
2023/10/11 07:51:10;;;;;;;15.98;5.72;;;;;;;22.26;100.00;100954.13;4927075;29;20127;-44
2023/10/11 07:53:44;;;;;;;13.43;4.43;;;;;;;22.39;100.00;100963.13;4926048;29;20048;-44
2023/10/11 07:56:15;;;;;;;18.40;4.50;;;;;;;22.33;100.00;100960.22;4930132;29;20058;-45
2023/10/11 07:58:45;;;;;;;17.23;4.90;;;;;;;22.34;100.00;100969.50;4927395;29;20055;-40
2023/10/11 08:01:30;;;;;;;12.65;4.47;;;;;;;22.35;100.00;100968.22;4929680;29;20055;-42
2023/10/11 08:03:59;;;;;;;17.00;5.20;;;;;;;22.34;100.00;100964.59;4929260;29;20075;-44
2023/10/11 08:06:26;;;;;;;12.55;4.47;;;;;;;22.35;100.00;100971.06;4927528;29;20052;-41
2023/10/11 08:09:03;;;;;;;17.02;4.50;;;;;;;22.37;100.00;100974.19;4927823;29;20066;-47
2023/10/11 08:11:45;;;;;;;15.32;4.43;;;;;;;22.40;100.00;100973.16;4928742;29;20138;-41
2023/10/11 08:14:15;;;;;;;15.52;4.18;;;;;;;22.35;100.00;100963.34;4931494;29;20493;-40
2023/10/11 08:16:42;;;;;;;14.95;4.18;;;;;;;22.38;100.00;100976.53;4928488;29;20058;-41
2023/10/11 08:19:11;;;;;;;18.88;4.78;;;;;;;22.37;100.00;100977.78;4929982;29;20058;-44
2023/10/11 08:21:38;;;;;;;12.65;4.50;;;;;;;22.37;100.00;100989.09;4930781;29;20063;-44
2023/10/11 08:24:06;;;;;;;13.48;4.28;;;;;;;22.33;100.00;100990.56;4927594;29;20052;-44
2023/10/11 08:26:42;;;;;;;12.82;4.07;;;;;;;22.36;100.00;100989.59;4930319;29;20102;-39
2023/10/11 08:29:25;;;;;;;14.00;3.88;;;;;;;22.34;100.00;100995.00;4932527;29;20048;-46
2023/10/11 08:31:52;;;;;;;17.20;4.72;;;;;;;22.34;100.00;100989.31;4929795;29;20138;-44
2023/10/11 08:34:18;;;;;;;12.43;4.10;;;;;;;22.36;100.00;100995.25;4934889;29;20043;-42
2023/10/11 08:36:45;;;;;;;12.63;4.22;;;;;;;22.34;100.00;100986.50;4934974;29;20518;-44
2023/10/11 08:39:13;;;;;;;12.52;3.85;;;;;;;22.34;100.00;100992.91;4932276;29;20134;-40
2023/10/11 08:41:43;;;;;;;12.68;3.97;;;;;;;22.33;100.00;100980.03;4913048;29;20056;-45
2023/10/11 08:44:20;;;;;;;11.07;4.22;;;;;;;22.32;100.00;100992.66;4931175;29;20099;-42
2023/10/11 08:46:49;;;;;;;11.68;4.30;;;;;;;22.32;100.00;100991.84;4927264;29;20441;-41
2023/10/11 08:49:17;;;;;;;13.07;4.10;;;;;;;22.34;100.00;100986.50;4930078;29;20056;-43
2023/10/11 08:51:44;;;;;;;13.30;4.50;;;;;;;22.35;100.00;100983.16;4928355;29;20051;-49
2023/10/11 08:54:12;;;;;;;14.98;4.28;;;;;;;22.34;100.00;100995.75;4928740;29;20043;-42
2023/10/11 08:56:54;;;;;;;13.93;4.47;;;;;;;22.34;100.00;100992.16;4935336;29;20502;-42
2023/10/11 08:59:25;;;;;;;13.02;4.47;;;;;;;22.29;100.00;100990.75;4928244;29;20063;-41
2023/10/11 09:01:53;;;;;;;15.70;5.03;;;;;;;22.23;100.00;100981.41;4928658;29;20490;-45
2023/10/11 09:04:26;;;;;;;13.18;4.40;;;;;;;22.26;100.00;100985.28;4915896;29;20495;-43
2023/10/11 09:06:57;;;;;;;13.15;5.10;;;;;;;22.26;100.00;100991.75;4933088;29;20055;-42
2023/10/11 09:09:41;;;;;;;11.52;4.32;;;;;;;22.22;100.00;100999.66;4926112;29;20057;-44
2023/10/11 09:12:23;;;;;;;11.82;4.10;;;;;;;22.27;100.00;100995.38;4930893;29;20055;-43
2023/10/11 09:14:58;;;;;;;15.73;5.07;;;;;;;22.27;100.00;100986.88;4930421;29;20079;-41
2023/10/11 09:17:27;;;;;;;11.90;4.25;;;;;;;22.27;100.00;100981.22;4934194;29;20059;-43
2023/10/11 09:19:58;;;;;;;12.48;4.43;;;;;;;22.28;100.00;100997.72;4930327;29;20055;-46
2023/10/11 09:22:24;;;;;;;13.93;4.55;;;;;;;22.24;100.00;100988.63;4927094;29;20059;-44
2023/10/11 09:25:24;;;;;;;12.65;4.60;;;;;;;22.28;100.00;100988.44;4930099;29;20075;-42
2023/10/11 09:27:50;;;;;;;13.32;4.43;;;;;;;22.29;100.00;100978.66;4931367;29;20470;-43
2023/10/11 09:30:19;;;;;;;16.45;5.05;;;;;;;22.23;100.00;100975.72;4931852;29;20058;-44
2023/10/11 09:32:53;;;;;;;16.88;4.85;;;;;;;22.22;100.00;100977.00;4933757;29;20058;-42
2023/10/11 09:35:26;;;;;;;18.02;4.85;;;;;;;22.25;100.00;100973.19;4929310;29;20056;-42
2023/10/11 09:37:58;;;;;;;16.73;5.88;;;;;;;22.25;100.00;100966.75;4933639;29;20055;-42
2023/10/11 09:40:28;;;;;;;13.63;4.88;;;;;;;22.22;100.00;100984.72;4932135;29;20577;-43
2023/10/11 09:43:02;;;;;;;17.83;4.55;;;;;;;22.20;100.00;100964.63;4930820;29;20055;-45
2023/10/11 09:45:42;;;;;;;11.90;4.55;;;;;;;22.20;100.00;100970.28;4926772;29;20570;-41
2023/10/11 09:48:17;;;;;;;14.63;4.60;;;;;;;22.23;100.00;100961.56;4933676;29;20126;-44
2023/10/11 09:50:44;;;;;;;16.42;5.07;;;;;;;22.23;100.00;100961.56;4932057;29;20043;-50
2023/10/11 09:53:13;;;;;;;18.90;5.22;;;;;;;22.23;100.00;100975.72;4932781;29;20102;-42
2023/10/11 09:56:15;;;;;;;15.82;4.57;;;;;;;22.22;100.00;100976.22;4928763;29;20051;-45
2023/10/11 09:58:48;;;;;;;18.70;4.47;;;;;;;22.24;100.00;100977.28;4930465;29;20126;-41
2023/10/11 10:01:26;;;;;;;15.43;4.60;;;;;;;22.24;100.00;100990.69;4932676;29;20052;-46
2023/10/11 10:03:53;;;;;;;14.05;4.57;;;;;;;22.23;100.00;100991.94;4933266;29;20056;-41
2023/10/11 10:06:21;;;;;;;13.35;4.88;;;;;;;22.18;100.00;100985.69;4930894;29;20051;-42
2023/10/11 10:09:04;;;;;;;17.00;4.97;;;;;;;22.21;100.00;100989.63;4918480;29;20047;-44
2023/10/11 10:12:09;;;;;;;12.23;4.53;;;;;;;22.24;100.00;100982.94;4927788;29;20058;-46
2023/10/11 10:14:36;;;;;;;17.35;5.07;;;;;;;22.24;100.00;100999.19;4929084;29;20059;-41
2023/10/11 10:17:10;;;;;;;18.83;5.60;;;;;;;22.24;100.00;100988.63;4926643;29;20051;-41
2023/10/11 10:19:43;;;;;;;14.40;4.93;;;;;;;22.30;100.00;100991.56;4927922;29;20078;-43
2023/10/11 10:22:15;;;;;;;16.20;4.32;;;;;;;22.32;100.00;100992.66;4931253;29;20541;-41
2023/10/11 10:24:43;;;;;;;16.10;4.40;;;;;;;22.33;100.00;100994.19;4930958;29;20157;-42
2023/10/11 10:27:37;;;;;;;14.20;4.68;;;;;;;22.36;100.00;100987.56;4930752;29;20554;-42
2023/10/11 10:30:08;;;;;;;12.32;4.15;;;;;;;22.39;100.00;100985.78;4928553;29;20130;-43
2023/10/11 10:32:35;;;;;;;13.23;4.32;;;;;;;22.41;100.00;100986.84;4913487;29;20055;-43
2023/10/11 10:35:20;;;;;;;11.70;4.00;;;;;;;22.44;100.00;100985.84;4932319;29;20048;-42
2023/10/11 10:37:46;;;;;;;13.77;3.93;;;;;;;22.46;100.00;100982.53;4931155;29;20118;-42
2023/10/11 10:40:27;;;;;;;13.50;4.47;;;;;;;22.45;100.00;100983.81;4932307;29;20066;-42
2023/10/11 10:43:06;;;;;;;17.67;4.45;;;;;;;22.47;100.00;100978.44;4932561;29;20068;-43
2023/10/11 10:45:36;;;;;;;10.43;4.35;;;;;;;22.46;100.00;100971.19;4931631;29;20163;-43
2023/10/11 10:48:23;;;;;;;10.52;4.07;;;;;;;22.45;100.00;100964.78;4932212;29;20070;-42
2023/10/11 10:50:52;;;;;;;22.73;4.35;;;;;;;22.46;100.00;100959.88;4927987;29;20047;-43
2023/10/11 10:53:24;;;;;;;15.32;4.15;;;;;;;22.37;100.00;100952.28;4927510;29;20379;-43
2023/10/11 10:55:51;;;;;;;12.10;4.35;;;;;;;22.41;100.00;100960.59;4929258;29;20062;-43
2023/10/11 10:58:19;;;;;;;16.55;4.50;;;;;;;22.42;100.00;100962.13;4929963;29;20122;-44
2023/10/11 11:00:51;;;;;;;13.85;3.90;;;;;;;22.46;100.00;100963.50;4932074;29;20079;-43
2023/10/11 11:03:25;;;;;;;12.02;4.28;;;;;;;22.43;100.00;100972.97;4930335;29;20047;-44
2023/10/11 11:05:56;;;;;;;14.68;4.05;;;;;;;22.45;100.00;100963.97;4929677;29;20043;-40
2023/10/11 11:08:31;;;;;;;20.30;5.03;;;;;;;22.44;100.00;100971.69;4931232;29;20075;-44
2023/10/11 11:11:19;;;;;;;14.00;4.50;;;;;;;22.40;100.00;100961.84;4912561;29;20052;-44
2023/10/11 11:13:47;;;;;;;21.60;4.80;;;;;;;22.47;100.00;100961.44;4928702;29;20138;-43
2023/10/11 11:16:16;;;;;;;19.17;4.40;;;;;;;22.47;100.00;100955.78;4926006;29;20127;-45
2023/10/11 11:18:43;;;;;;;14.55;4.70;;;;;;;22.51;100.00;100956.34;4934533;29;20133;-45
2023/10/11 11:21:22;;;;;;;22.83;5.45;;;;;;;22.53;100.00;100965.13;4932557;29;20055;-42
2023/10/11 11:23:49;;;;;;;16.25;4.93;;;;;;;22.47;100.00;100990.53;4931557;29;20316;-42
2023/10/11 11:26:23;;;;;;;19.67;5.40;;;;;;;22.48;100.00;100955.25;4931086;29;20067;-41
2023/10/11 11:28:53;;;;;;;15.98;4.70;;;;;;;22.47;100.00;100969.94;4929076;29;20130;-43
2023/10/11 11:34:05;;;;;;;18.92;5.45;;;;;;;22.48;100.00;100955.25;4931682;29;20052;-45
2023/10/11 11:36:34;;;;;;;15.15;4.53;;;;;;;22.47;100.00;100948.03;4929168;29;20051;-42
2023/10/11 11:39:17;;;;;;;22.63;4.97;;;;;;;22.48;100.00;100949.59;4929777;29;20526;-46
2023/10/11 11:41:47;;;;;;;18.20;4.97;;;;;;;22.48;100.00;100949.59;4931501;29;20060;-45
2023/10/11 11:44:22;;;;;;;17.15;4.55;;;;;;;22.49;100.00;100950.38;4927106;29;20091;-45
2023/10/11 11:46:53;;;;;;;23.27;4.68;;;;;;;22.50;100.00;100954.78;4929578;29;20122;-41
2023/10/11 11:49:22;;;;;;;16.35;4.18;;;;;;;22.49;100.00;100956.06;4931216;29;20531;-44
2023/10/11 11:51:53;;;;;;;19.45;4.72;;;;;;;22.50;100.00;100954.78;4930931;29;20083;-41
2023/10/11 11:54:21;;;;;;;13.07;4.30;;;;;;;22.51;100.00;100950.69;4928799;29;20122;-44
2023/10/11 11:56:48;;;;;;;16.38;5.07;;;;;;;22.50;100.00;100949.09;4931271;29;20082;-44
2023/10/11 11:59:18;;;;;;;16.58;4.57;;;;;;;22.50;100.00;100966.91;4929693;29;20123;-45
2023/10/11 12:01:49;;;;;;;14.65;4.60;;;;;;;22.54;100.00;100963.88;4930985;29;20051;-45
2023/10/11 12:04:20;;;;;;;16.25;4.53;;;;;;;22.53;100.00;100962.28;4929115;29;20090;-43
2023/10/11 12:06:48;;;;;;;15.30;4.35;;;;;;;22.53;100.00;100954.56;4926952;29;20055;-46
2023/10/11 12:09:20;;;;;;;13.43;4.35;;;;;;;22.52;100.00;100952.22;4929469;29;20109;-42
2023/10/11 12:11:49;;;;;;;16.13;4.93;;;;;;;22.58;100.00;100941.75;4928352;29;20062;-41
2023/10/11 12:14:16;;;;;;;17.70;4.53;;;;;;;22.57;100.00;100943.00;4931231;29;20142;-41
2023/10/11 12:16:43;;;;;;;17.75;4.78;;;;;;;22.58;100.00;100934.03;4929599;29;20052;-41
2023/10/11 12:19:11;;;;;;;19.70;5.20;;;;;;;22.55;100.00;100937.09;4931068;29;20435;-42
2023/10/11 12:21:39;;;;;;;17.98;4.78;;;;;;;22.57;100.00;100926.03;4913308;29;20056;-41